sensor_id;sensor_type;location;lat;lon;timestamp;P1;durP1;ratioP1;P2;durP2;ratioP2
5454;SDS011;2750;49.050;9.250;2022-08-18T00:04:35;7.67;;;6.93;;
5454;SDS011;2750;49.050;9.250;2022-08-18T00:09:39;7.80;;;7.13;;
5454;SDS011;2750;49.050;9.250;2022-08-18T00:14:42;9.30;;;7.87;;
5454;SDS011;2750;49.050;9.250;2022-08-18T00:19:44;8.17;;;7.47;;
5454;SDS011;2750;49.050;9.250;2022-08-18T00:24:48;8.73;;;8.03;;
5454;SDS011;2750;49.050;9.250;2022-08-18T00:29:51;9.40;;;8.50;;
5454;SDS011;2750;49.050;9.250;2022-08-18T00:34:54;9.70;;;8.80;;
5454;SDS011;2750;49.050;9.250;2022-08-18T00:39:57;10.57;;;9.33;;
5454;SDS011;2750;49.050;9.250;2022-08-18T00:44:59;11.07;;;10.07;;
5454;SDS011;2750;49.050;9.250;2022-08-18T00:50:03;10.87;;;9.93;;
5454;SDS011;2750;49.050;9.250;2022-08-18T00:55:08;11.53;;;10.50;;
5454;SDS011;2750;49.050;9.250;2022-08-18T01:00:10;12.43;;;11.33;;
5454;SDS011;2750;49.050;9.250;2022-08-18T01:05:15;11.83;;;10.70;;
5454;SDS011;2750;49.050;9.250;2022-08-18T01:10:23;12.57;;;11.37;;
5454;SDS011;2750;49.050;9.250;2022-08-18T01:15:25;14.57;;;12.87;;
5454;SDS011;2750;49.050;9.250;2022-08-18T01:20:28;13.83;;;12.50;;
5454;SDS011;2750;49.050;9.250;2022-08-18T01:25:53;15.30;;;13.90;;
5454;SDS011;2750;49.050;9.250;2022-08-18T01:31:02;14.27;;;12.97;;
5454;SDS011;2750;49.050;9.250;2022-08-18T01:36:07;13.47;;;12.17;;
5454;SDS011;2750;49.050;9.250;2022-08-18T01:41:15;15.53;;;14.23;;
5454;SDS011;2750;49.050;9.250;2022-08-18T01:46:17;14.73;;;13.33;;
5454;SDS011;2750;49.050;9.250;2022-08-18T01:51:20;14.87;;;13.50;;
5454;SDS011;2750;49.050;9.250;2022-08-18T01:56:23;15.43;;;14.23;;
5454;SDS011;2750;49.050;9.250;2022-08-18T02:01:26;16.93;;;15.33;;
5454;SDS011;2750;49.050;9.250;2022-08-18T02:06:27;17.43;;;15.70;;
5454;SDS011;2750;49.050;9.250;2022-08-18T02:11:30;15.43;;;14.13;;
5454;SDS011;2750;49.050;9.250;2022-08-18T02:16:32;16.43;;;15.03;;
5454;SDS011;2750;49.050;9.250;2022-08-18T02:21:33;15.13;;;13.73;;
5454;SDS011;2750;49.050;9.250;2022-08-18T02:26:36;18.87;;;17.00;;
5454;SDS011;2750;49.050;9.250;2022-08-18T02:31:37;18.27;;;16.57;;
5454;SDS011;2750;49.050;9.250;2022-08-18T02:36:39;20.37;;;18.47;;
5454;SDS011;2750;49.050;9.250;2022-08-18T02:41:42;16.47;;;14.97;;
5454;SDS011;2750;49.050;9.250;2022-08-18T02:46:43;16.90;;;15.43;;
5454;SDS011;2750;49.050;9.250;2022-08-18T02:51:45;17.30;;;15.73;;
5454;SDS011;2750;49.050;9.250;2022-08-18T02:56:48;13.60;;;12.30;;
5454;SDS011;2750;49.050;9.250;2022-08-18T03:01:51;15.43;;;14.03;;
5454;SDS011;2750;49.050;9.250;2022-08-18T03:06:55;17.03;;;15.43;;
5454;SDS011;2750;49.050;9.250;2022-08-18T03:11:59;13.80;;;12.17;;
5454;SDS011;2750;49.050;9.250;2022-08-18T03:17:02;13.73;;;12.53;;
5454;SDS011;2750;49.050;9.250;2022-08-18T03:22:06;16.27;;;14.73;;
5454;SDS011;2750;49.050;9.250;2022-08-18T03:27:10;17.40;;;15.80;;
5454;SDS011;2750;49.050;9.250;2022-08-18T03:32:11;15.03;;;13.53;;
5454;SDS011;2750;49.050;9.250;2022-08-18T03:37:13;19.07;;;17.20;;
5454;SDS011;2750;49.050;9.250;2022-08-18T03:42:16;14.20;;;12.93;;
5454;SDS011;2750;49.050;9.250;2022-08-18T03:47:18;14.60;;;13.27;;
5454;SDS011;2750;49.050;9.250;2022-08-18T03:52:20;11.80;;;10.80;;
5454;SDS011;2750;49.050;9.250;2022-08-18T03:57:23;11.37;;;10.37;;
5454;SDS011;2750;49.050;9.250;2022-08-18T04:02:25;13.73;;;12.33;;
5454;SDS011;2750;49.050;9.250;2022-08-18T04:07:27;15.93;;;14.50;;
5454;SDS011;2750;49.050;9.250;2022-08-18T04:12:31;16.70;;;15.13;;
5454;SDS011;2750;49.050;9.250;2022-08-18T04:17:32;17.23;;;15.70;;
5454;SDS011;2750;49.050;9.250;2022-08-18T04:22:34;17.83;;;16.13;;
5454;SDS011;2750;49.050;9.250;2022-08-18T04:27:37;20.20;;;18.37;;
5454;SDS011;2750;49.050;9.250;2022-08-18T04:32:41;19.03;;;17.27;;
5454;SDS011;2750;49.050;9.250;2022-08-18T04:37:44;19.93;;;18.13;;
5454;SDS011;2750;49.050;9.250;2022-08-18T04:42:47;15.43;;;13.90;;
5454;SDS011;2750;49.050;9.250;2022-08-18T04:47:49;13.57;;;11.53;;
5454;SDS011;2750;49.050;9.250;2022-08-18T04:52:50;14.77;;;13.43;;
5454;SDS011;2750;49.050;9.250;2022-08-18T04:58:11;17.50;;;15.90;;
5454;SDS011;2750;49.050;9.250;2022-08-18T05:03:15;16.77;;;15.07;;
5454;SDS011;2750;49.050;9.250;2022-08-18T05:08:16;17.50;;;15.90;;
5454;SDS011;2750;49.050;9.250;2022-08-18T05:13:19;19.07;;;17.20;;
5454;SDS011;2750;49.050;9.250;2022-08-18T05:18:21;18.80;;;16.93;;
5454;SDS011;2750;49.050;9.250;2022-08-18T05:23:24;17.07;;;15.37;;
5454;SDS011;2750;49.050;9.250;2022-08-18T05:28:27;16.13;;;14.53;;
5454;SDS011;2750;49.050;9.250;2022-08-18T05:33:29;15.60;;;14.20;;
5454;SDS011;2750;49.050;9.250;2022-08-18T05:38:37;14.67;;;13.37;;
5454;SDS011;2750;49.050;9.250;2022-08-18T05:43:49;17.40;;;15.83;;
5454;SDS011;2750;49.050;9.250;2022-08-18T05:48:51;17.07;;;15.37;;
5454;SDS011;2750;49.050;9.250;2022-08-18T05:53:53;17.27;;;15.63;;
5454;SDS011;2750;49.050;9.250;2022-08-18T05:59:21;13.30;;;12.05;;
5454;SDS011;2750;49.050;9.250;2022-08-18T06:04:28;14.57;;;13.05;;
5454;SDS011;2750;49.050;9.250;2022-08-18T06:09:37;15.73;;;14.27;;
5454;SDS011;2750;49.050;9.250;2022-08-18T06:14:44;14.18;;;13.07;;
5454;SDS011;2750;49.050;9.250;2022-08-18T06:19:48;13.55;;;12.45;;
5454;SDS011;2750;49.050;9.250;2022-08-18T06:24:59;12.50;;;11.23;;
5454;SDS011;2750;49.050;9.250;2022-08-18T06:30:09;12.38;;;11.18;;
5454;SDS011;2750;49.050;9.250;2022-08-18T06:35:22;13.32;;;12.13;;
5454;SDS011;2750;49.050;9.250;2022-08-18T06:40:32;15.13;;;13.60;;
5454;SDS011;2750;49.050;9.250;2022-08-18T06:45:35;15.30;;;13.82;;
5454;SDS011;2750;49.050;9.250;2022-08-18T06:50:39;14.15;;;12.13;;
5454;SDS011;2750;49.050;9.250;2022-08-18T06:55:48;13.57;;;12.45;;
5454;SDS011;2750;49.050;9.250;2022-08-18T07:00:55;13.30;;;12.20;;
5454;SDS011;2750;49.050;9.250;2022-08-18T07:06:00;13.13;;;12.02;;
5454;SDS011;2750;49.050;9.250;2022-08-18T07:11:10;12.57;;;11.43;;
5454;SDS011;2750;49.050;9.250;2022-08-18T07:16:16;11.73;;;10.48;;
5454;SDS011;2750;49.050;9.250;2022-08-18T07:21:23;10.07;;;9.23;;
5454;SDS011;2750;49.050;9.250;2022-08-18T07:26:26;10.43;;;9.52;;
5454;SDS011;2750;49.050;9.250;2022-08-18T07:31:35;10.35;;;9.55;;
5454;SDS011;2750;49.050;9.250;2022-08-18T07:36:43;9.43;;;8.63;;
5454;SDS011;2750;49.050;9.250;2022-08-18T07:41:51;9.85;;;9.00;;
5454;SDS011;2750;49.050;9.250;2022-08-18T07:47:00;9.13;;;8.40;;
5454;SDS011;2750;49.050;9.250;2022-08-18T07:52:05;10.25;;;9.35;;
5454;SDS011;2750;49.050;9.250;2022-08-18T07:57:13;11.73;;;9.10;;
5454;SDS011;2750;49.050;9.250;2022-08-18T08:02:26;10.43;;;9.52;;
5454;SDS011;2750;49.050;9.250;2022-08-18T08:07:35;11.45;;;10.35;;
5454;SDS011;2750;49.050;9.250;2022-08-18T08:12:44;11.85;;;10.75;;
5454;SDS011;2750;49.050;9.250;2022-08-18T08:17:56;10.40;;;9.40;;
5454;SDS011;2750;49.050;9.250;2022-08-18T08:23:08;11.57;;;10.57;;
5454;SDS011;2750;49.050;9.250;2022-08-18T08:28:21;11.03;;;10.13;;
5454;SDS011;2750;49.050;9.250;2022-08-18T08:33:34;10.23;;;9.33;;
5454;SDS011;2750;49.050;9.250;2022-08-18T08:38:41;12.43;;;10.03;;
5454;SDS011;2750;49.050;9.250;2022-08-18T08:43:47;10.00;;;9.20;;
5454;SDS011;2750;49.050;9.250;2022-08-18T08:48:58;12.93;;;11.60;;
5454;SDS011;2750;49.050;9.250;2022-08-18T08:54:08;12.00;;;11.00;;
5454;SDS011;2750;49.050;9.250;2022-08-18T08:59:17;11.77;;;10.77;;
5454;SDS011;2750;49.050;9.250;2022-08-18T09:04:26;11.93;;;10.83;;
5454;SDS011;2750;49.050;9.250;2022-08-18T09:09:42;12.67;;;10.43;;
5454;SDS011;2750;49.050;9.250;2022-08-18T09:20:26;10.67;;;9.77;;
5454;SDS011;2750;49.050;9.250;2022-08-18T09:25:44;10.82;;;9.88;;
5454;SDS011;2750;49.050;9.250;2022-08-18T09:30:53;10.13;;;9.23;;
5454;SDS011;2750;49.050;9.250;2022-08-18T09:36:20;9.95;;;9.05;;
5454;SDS011;2750;49.050;9.250;2022-08-18T09:41:34;10.48;;;9.57;;
5454;SDS011;2750;49.050;9.250;2022-08-18T09:46:55;10.90;;;10.00;;
5454;SDS011;2750;49.050;9.250;2022-08-18T09:52:00;10.00;;;9.20;;
5454;SDS011;2750;49.050;9.250;2022-08-18T10:03:21;11.05;;;10.13;;
5454;SDS011;2750;49.050;9.250;2022-08-18T10:08:33;9.93;;;9.13;;
5454;SDS011;2750;49.050;9.250;2022-08-18T10:13:48;11.40;;;10.25;;
5454;SDS011;2750;49.050;9.250;2022-08-18T10:19:09;11.40;;;10.35;;
5454;SDS011;2750;49.050;9.250;2022-08-18T10:24:17;11.40;;;10.40;;
5454;SDS011;2750;49.050;9.250;2022-08-18T10:34:47;12.80;;;11.70;;
5454;SDS011;2750;49.050;9.250;2022-08-18T10:39:50;14.45;;;13.18;;
5454;SDS011;2750;49.050;9.250;2022-08-18T10:44:59;13.63;;;12.38;;
5454;SDS011;2750;49.050;9.250;2022-08-18T10:50:11;15.77;;;14.38;;
5454;SDS011;2750;49.050;9.250;2022-08-18T10:55:29;14.38;;;13.07;;
5454;SDS011;2750;49.050;9.250;2022-08-18T11:00:45;15.60;;;14.20;;
5454;SDS011;2750;49.050;9.250;2022-08-18T11:05:59;15.02;;;13.73;;
5454;SDS011;2750;49.050;9.250;2022-08-18T11:11:05;14.45;;;13.15;;
5454;SDS011;2750;49.050;9.250;2022-08-18T11:16:10;12.65;;;11.52;;
5454;SDS011;2750;49.050;9.250;2022-08-18T11:21:23;13.23;;;12.02;;
5454;SDS011;2750;49.050;9.250;2022-08-18T11:26:36;13.52;;;12.20;;
5454;SDS011;2750;49.050;9.250;2022-08-18T11:31:41;12.60;;;11.60;;
5454;SDS011;2750;49.050;9.250;2022-08-18T11:36:43;12.68;;;11.45;;
5454;SDS011;2750;49.050;9.250;2022-08-18T11:41:44;14.07;;;12.98;;
5454;SDS011;2750;49.050;9.250;2022-08-18T11:46:49;14.75;;;13.45;;
5454;SDS011;2750;49.050;9.250;2022-08-18T11:51:56;12.10;;;11.10;;
5454;SDS011;2750;49.050;9.250;2022-08-18T12:02:40;11.38;;;10.38;;
5454;SDS011;2750;49.050;9.250;2022-08-18T12:07:42;10.35;;;9.48;;
5454;SDS011;2750;49.050;9.250;2022-08-18T12:12:44;12.45;;;11.35;;
5454;SDS011;2750;49.050;9.250;2022-08-18T12:17:49;13.23;;;11.93;;
5454;SDS011;2750;49.050;9.250;2022-08-18T12:22:50;10.63;;;9.82;;
5454;SDS011;2750;49.050;9.250;2022-08-18T12:27:56;9.75;;;8.95;;
5454;SDS011;2750;49.050;9.250;2022-08-18T12:32:59;10.07;;;9.27;;
5454;SDS011;2750;49.050;9.250;2022-08-18T12:38:00;9.55;;;8.75;;
5454;SDS011;2750;49.050;9.250;2022-08-18T12:43:02;10.20;;;9.18;;
5454;SDS011;2750;49.050;9.250;2022-08-18T12:48:06;10.00;;;9.07;;
5454;SDS011;2750;49.050;9.250;2022-08-18T12:53:07;9.98;;;9.18;;
5454;SDS011;2750;49.050;9.250;2022-08-18T12:58:09;9.27;;;8.48;;
5454;SDS011;2750;49.050;9.250;2022-08-18T13:03:12;10.50;;;9.60;;
5454;SDS011;2750;49.050;9.250;2022-08-18T13:08:15;8.65;;;7.93;;
5454;SDS011;2750;49.050;9.250;2022-08-18T13:13:19;10.90;;;8.73;;
5454;SDS011;2750;49.050;9.250;2022-08-18T13:18:22;9.30;;;8.57;;
5454;SDS011;2750;49.050;9.250;2022-08-18T13:23:24;9.15;;;8.20;;
5454;SDS011;2750;49.050;9.250;2022-08-18T13:28:26;9.15;;;8.48;;
5454;SDS011;2750;49.050;9.250;2022-08-18T13:33:29;9.63;;;8.82;;
5454;SDS011;2750;49.050;9.250;2022-08-18T13:38:31;8.73;;;8.13;;
5454;SDS011;2750;49.050;9.250;2022-08-18T13:43:34;8.60;;;8.10;;
5454;SDS011;2750;49.050;9.250;2022-08-18T13:48:39;8.73;;;7.97;;
5454;SDS011;2750;49.050;9.250;2022-08-18T13:53:41;8.70;;;8.10;;
5454;SDS011;2750;49.050;9.250;2022-08-18T13:58:42;9.05;;;8.13;;
5454;SDS011;2750;49.050;9.250;2022-08-18T14:03:45;8.65;;;7.85;;
5454;SDS011;2750;49.050;9.250;2022-08-18T14:08:47;8.75;;;8.05;;
5454;SDS011;2750;49.050;9.250;2022-08-18T14:13:49;8.18;;;7.57;;
5454;SDS011;2750;49.050;9.250;2022-08-18T14:18:52;8.18;;;7.45;;
5454;SDS011;2750;49.050;9.250;2022-08-18T14:24:11;8.27;;;7.57;;
5454;SDS011;2750;49.050;9.250;2022-08-18T14:29:32;9.40;;;8.60;;
5454;SDS011;2750;49.050;9.250;2022-08-18T14:34:35;8.40;;;7.63;;
5454;SDS011;2750;49.050;9.250;2022-08-18T14:39:36;8.38;;;7.65;;
5454;SDS011;2750;49.050;9.250;2022-08-18T14:44:38;7.63;;;6.93;;
5454;SDS011;2750;49.050;9.250;2022-08-18T14:49:41;7.70;;;7.10;;
5454;SDS011;2750;49.050;9.250;2022-08-18T14:54:43;8.05;;;7.38;;
5454;SDS011;2750;49.050;9.250;2022-08-18T14:59:45;7.88;;;7.28;;
5454;SDS011;2750;49.050;9.250;2022-08-18T15:04:48;8.23;;;7.63;;
5454;SDS011;2750;49.050;9.250;2022-08-18T15:09:49;7.88;;;7.18;;
5454;SDS011;2750;49.050;9.250;2022-08-18T15:14:50;7.65;;;7.03;;
5454;SDS011;2750;49.050;9.250;2022-08-18T15:19:53;8.93;;;8.23;;
5454;SDS011;2750;49.050;9.250;2022-08-18T15:24:55;7.60;;;7.10;;
5454;SDS011;2750;49.050;9.250;2022-08-18T15:30:14;8.77;;;8.07;;
5454;SDS011;2750;49.050;9.250;2022-08-18T15:35:18;8.57;;;7.88;;
5454;SDS011;2750;49.050;9.250;2022-08-18T15:40:21;8.27;;;7.68;;
5454;SDS011;2750;49.050;9.250;2022-08-18T15:45:25;8.85;;;8.05;;
5454;SDS011;2750;49.050;9.250;2022-08-18T15:50:30;8.00;;;7.25;;
5454;SDS011;2750;49.050;9.250;2022-08-18T15:55:33;9.15;;;7.78;;
5454;SDS011;2750;49.050;9.250;2022-08-18T16:00:36;8.50;;;7.80;;
5454;SDS011;2750;49.050;9.250;2022-08-18T16:05:45;8.20;;;7.38;;
5454;SDS011;2750;49.050;9.250;2022-08-18T16:10:51;7.80;;;7.20;;
5454;SDS011;2750;49.050;9.250;2022-08-18T16:15:53;8.00;;;7.40;;
5454;SDS011;2750;49.050;9.250;2022-08-18T16:20:56;8.15;;;7.55;;
5454;SDS011;2750;49.050;9.250;2022-08-18T16:26:03;8.32;;;7.72;;
5454;SDS011;2750;49.050;9.250;2022-08-18T16:31:06;10.48;;;9.48;;
5454;SDS011;2750;49.050;9.250;2022-08-18T16:36:09;9.25;;;8.40;;
5454;SDS011;2750;49.050;9.250;2022-08-18T16:41:16;9.48;;;8.65;;
5454;SDS011;2750;49.050;9.250;2022-08-18T16:46:19;8.88;;;7.97;;
5454;SDS011;2750;49.050;9.250;2022-08-18T16:51:26;10.23;;;9.32;;
5454;SDS011;2750;49.050;9.250;2022-08-18T16:56:29;14.60;;;13.30;;
5454;SDS011;2750;49.050;9.250;2022-08-18T17:01:33;13.02;;;12.02;;
5454;SDS011;2750;49.050;9.250;2022-08-18T17:06:55;13.85;;;12.73;;
5454;SDS011;2750;49.050;9.250;2022-08-18T17:11:57;14.30;;;13.00;;
5454;SDS011;2750;49.050;9.250;2022-08-18T17:16:59;14.38;;;13.27;;
5454;SDS011;2750;49.050;9.250;2022-08-18T17:22:02;15.55;;;14.25;;
5454;SDS011;2750;49.050;9.250;2022-08-18T17:27:07;15.43;;;14.13;;
5454;SDS011;2750;49.050;9.250;2022-08-18T17:32:16;15.35;;;14.25;;
5454;SDS011;2750;49.050;9.250;2022-08-18T17:37:20;15.00;;;13.60;;
5454;SDS011;2750;49.050;9.250;2022-08-18T17:42:23;14.20;;;13.05;;
5454;SDS011;2750;49.050;9.250;2022-08-18T17:47:29;13.75;;;12.55;;
5454;SDS011;2750;49.050;9.250;2022-08-18T17:52:37;13.93;;;12.73;;
5454;SDS011;2750;49.050;9.250;2022-08-18T17:57:46;13.43;;;12.18;;
5454;SDS011;2750;49.050;9.250;2022-08-18T18:02:54;13.95;;;12.35;;
5454;SDS011;2750;49.050;9.250;2022-08-18T18:07:58;14.27;;;13.07;;
5454;SDS011;2750;49.050;9.250;2022-08-18T18:13:10;15.82;;;14.25;;
5454;SDS011;2750;49.050;9.250;2022-08-18T18:18:18;17.30;;;15.82;;
5454;SDS011;2750;49.050;9.250;2022-08-18T18:23:36;16.50;;;15.07;;
5454;SDS011;2750;49.050;9.250;2022-08-18T18:28:40;17.15;;;15.65;;
5454;SDS011;2750;49.050;9.250;2022-08-18T18:33:41;17.83;;;16.33;;
5454;SDS011;2750;49.050;9.250;2022-08-18T18:38:46;18.73;;;17.02;;
5454;SDS011;2750;49.050;9.250;2022-08-18T18:44:05;20.05;;;18.40;;
5454;SDS011;2750;49.050;9.250;2022-08-18T18:49:12;19.20;;;17.60;;
5454;SDS011;2750;49.050;9.250;2022-08-18T18:54:24;20.05;;;18.45;;
5454;SDS011;2750;49.050;9.250;2022-08-18T18:59:40;20.70;;;18.70;;
5454;SDS011;2750;49.050;9.250;2022-08-18T19:04:53;21.58;;;19.67;;
5454;SDS011;2750;49.050;9.250;2022-08-18T19:10:06;21.05;;;19.02;;
5454;SDS011;2750;49.050;9.250;2022-08-18T19:15:13;21.35;;;19.50;;
5454;SDS011;2750;49.050;9.250;2022-08-18T19:20:17;21.10;;;19.30;;
5454;SDS011;2750;49.050;9.250;2022-08-18T19:25:26;21.13;;;19.42;;
5454;SDS011;2750;49.050;9.250;2022-08-18T19:30:30;20.00;;;18.30;;
5454;SDS011;2750;49.050;9.250;2022-08-18T19:35:36;20.55;;;18.92;;
5454;SDS011;2750;49.050;9.250;2022-08-18T19:40:47;21.80;;;19.30;;
5454;SDS011;2750;49.050;9.250;2022-08-18T19:45:54;20.63;;;18.80;;
5454;SDS011;2750;49.050;9.250;2022-08-18T19:51:03;20.42;;;18.73;;
5454;SDS011;2750;49.050;9.250;2022-08-18T19:56:14;20.65;;;18.83;;
5454;SDS011;2750;49.050;9.250;2022-08-18T20:01:28;20.08;;;18.45;;
5454;SDS011;2750;49.050;9.250;2022-08-18T20:06:58;21.25;;;19.45;;
5454;SDS011;2750;49.050;9.250;2022-08-18T20:12:18;20.83;;;19.10;;
5454;SDS011;2750;49.050;9.250;2022-08-18T20:17:58;20.85;;;18.95;;
5454;SDS011;2750;49.050;9.250;2022-08-18T20:23:27;20.37;;;18.67;;
5454;SDS011;2750;49.050;9.250;2022-08-18T20:28:33;19.35;;;17.73;;
5454;SDS011;2750;49.050;9.250;2022-08-18T20:33:37;19.97;;;18.23;;
5454;SDS011;2750;49.050;9.250;2022-08-18T20:38:43;20.73;;;18.63;;
5454;SDS011;2750;49.050;9.250;2022-08-18T20:43:48;20.40;;;18.50;;
5454;SDS011;2750;49.050;9.250;2022-08-18T20:48:55;19.37;;;17.77;;
5454;SDS011;2750;49.050;9.250;2022-08-18T20:54:15;20.30;;;18.50;;
5454;SDS011;2750;49.050;9.250;2022-08-18T20:59:28;20.27;;;18.27;;
5454;SDS011;2750;49.050;9.250;2022-08-18T21:04:36;18.67;;;16.97;;
5454;SDS011;2750;49.050;9.250;2022-08-18T21:09:52;17.17;;;15.87;;
5454;SDS011;2750;49.050;9.250;2022-08-18T21:14:58;17.47;;;15.87;;
5454;SDS011;2750;49.050;9.250;2022-08-18T21:20:11;18.37;;;16.67;;
5454;SDS011;2750;49.050;9.250;2022-08-18T21:25:15;17.93;;;16.23;;
5454;SDS011;2750;49.050;9.250;2022-08-18T21:30:18;18.47;;;16.93;;
5454;SDS011;2750;49.050;9.250;2022-08-18T21:35:25;18.17;;;16.67;;
5454;SDS011;2750;49.050;9.250;2022-08-18T21:40:33;17.27;;;15.63;;
5454;SDS011;2750;49.050;9.250;2022-08-18T21:45:42;18.17;;;16.33;;
5454;SDS011;2750;49.050;9.250;2022-08-18T21:50:49;15.53;;;14.20;;
5454;SDS011;2750;49.050;9.250;2022-08-18T21:55:53;15.20;;;14.00;;
5454;SDS011;2750;49.050;9.250;2022-08-18T22:01:07;15.17;;;13.97;;
5454;SDS011;2750;49.050;9.250;2022-08-18T22:06:15;15.53;;;14.07;;
5454;SDS011;2750;49.050;9.250;2022-08-18T22:11:25;14.70;;;13.47;;
5454;SDS011;2750;49.050;9.250;2022-08-18T22:16:48;15.33;;;14.03;;
5454;SDS011;2750;49.050;9.250;2022-08-18T22:21:57;15.60;;;14.30;;
5454;SDS011;2750;49.050;9.250;2022-08-18T22:27:23;16.83;;;15.30;;
5454;SDS011;2750;49.050;9.250;2022-08-18T22:32:28;16.37;;;14.97;;
5454;SDS011;2750;49.050;9.250;2022-08-18T22:37:31;16.17;;;14.83;;
5454;SDS011;2750;49.050;9.250;2022-08-18T22:42:39;16.37;;;14.97;;
5454;SDS011;2750;49.050;9.250;2022-08-18T22:47:43;17.83;;;16.23;;
5454;SDS011;2750;49.050;9.250;2022-08-18T22:52:45;17.27;;;15.67;;
5454;SDS011;2750;49.050;9.250;2022-08-18T22:57:48;18.57;;;16.83;;
5454;SDS011;2750;49.050;9.250;2022-08-18T23:02:52;17.50;;;15.90;;
5454;SDS011;2750;49.050;9.250;2022-08-18T23:07:54;17.50;;;16.00;;
5454;SDS011;2750;49.050;9.250;2022-08-18T23:12:55;17.97;;;16.37;;
5454;SDS011;2750;49.050;9.250;2022-08-18T23:17:58;18.40;;;16.70;;
5454;SDS011;2750;49.050;9.250;2022-08-18T23:23:00;17.23;;;15.83;;
5454;SDS011;2750;49.050;9.250;2022-08-18T23:28:01;19.00;;;17.30;;
5454;SDS011;2750;49.050;9.250;2022-08-18T23:33:10;18.17;;;16.47;;
5454;SDS011;2750;49.050;9.250;2022-08-18T23:38:14;20.40;;;18.37;;
5454;SDS011;2750;49.050;9.250;2022-08-18T23:43:17;18.67;;;16.87;;
5454;SDS011;2750;49.050;9.250;2022-08-18T23:48:20;19.03;;;17.40;;
5454;SDS011;2750;49.050;9.250;2022-08-18T23:53:22;19.10;;;17.20;;
5454;SDS011;2750;49.050;9.250;2022-08-18T23:58:24;18.23;;;16.37;;
